Time;durP1;ratioP1;P1;durP2;ratioP2;P2;SDS_P1;SDS_P2;PMS_P1;PMS_P2;Temp;Humidity;BMP_temperature;BMP_pressure;BME280_temperature;BME280_humidity;BME280_pressure;Samples;Min_cycle;Max_cycle;Signal;HPM_P1;HPM_P2
2023/11/02 00:01:56;;;;;;;6.40;4.60;;;;;;;3.88;100.00;97102.63;110263;1240;59917;-69
2023/11/02 00:04:31;;;;;;;6.20;4.70;;;;;;;3.85;100.00;97096.41;110170;1243;59586;-70
2023/11/02 00:07:01;;;;;;;6.30;4.60;;;;;;;3.81;100.00;97090.77;110173;1241;71390;-69
2023/11/02 00:09:36;;;;;;;6.00;4.60;;;;;;;3.77;100.00;97089.73;110217;1242;68479;-69
2023/11/02 00:12:11;;;;;;;5.70;4.00;;;;;;;3.77;100.00;97094.06;110211;1243;69336;-70
2023/11/02 00:14:45;;;;;;;5.20;4.00;;;;;;;3.77;100.00;97097.69;110138;1241;59745;-70
2023/11/02 00:17:41;;;;;;;5.60;3.90;;;;;;;3.75;100.00;97096.90;110185;1242;59759;-70
2023/11/02 00:20:32;;;;;;;4.90;3.70;;;;;;;3.77;100.00;97102.52;110182;1242;70600;-70
2023/11/02 00:23:02;;;;;;;4.50;3.40;;;;;;;3.76;100.00;97099.27;110210;1245;69219;-70
2023/11/02 00:25:48;;;;;;;4.50;3.70;;;;;;;3.77;100.00;97097.83;110139;1243;68535;-70
2023/11/02 00:28:18;;;;;;;6.50;5.40;;;;;;;3.74;100.00;97096.80;110158;1241;59698;-70
2023/11/02 00:30:52;;;;;;;6.00;4.70;;;;;;;3.78;100.00;97094.35;110177;1241;59702;-70
2023/11/02 00:33:22;;;;;;;5.60;4.80;;;;;;;3.73;100.00;97093.89;110159;1242;70399;-70
2023/11/02 00:35:54;;;;;;;5.10;3.50;;;;;;;3.77;100.00;97087.52;110163;1244;69583;-70
2023/11/02 00:38:31;;;;;;;6.40;4.90;;;;;;;3.76;100.00;97089.82;110134;1240;69261;-70
2023/11/02 00:41:04;;;;;;;5.50;4.30;;;;;;;3.73;100.00;97088.05;110159;1243;59772;-70
2023/11/02 00:43:37;;;;;;;7.20;4.80;;;;;;;3.65;100.00;97084.69;110150;1245;59663;-69
2023/11/02 00:46:08;;;;;;;5.10;3.70;;;;;;;3.63;100.00;97081.83;110182;1241;71380;-70
2023/11/02 00:48:38;;;;;;;6.50;4.30;;;;;;;3.59;100.00;97078.95;110124;1242;69232;-70
2023/11/02 00:51:20;;;;;;;7.50;5.10;;;;;;;3.55;100.00;97072.42;110119;1240;68546;-70
2023/11/02 00:53:57;;;;;;;5.50;4.60;;;;;;;3.53;100.00;97073.38;110157;1242;59733;-70
2023/11/02 00:56:35;;;;;;;5.60;4.20;;;;;;;3.53;100.00;97069.56;110185;1244;59689;-70
2023/11/02 00:59:07;;;;;;;7.60;5.10;;;;;;;3.55;100.00;97067.91;110157;1245;70336;-70
2023/11/02 01:01:46;;;;;;;6.30;4.40;;;;;;;3.57;100.00;97066.80;110149;1243;68474;-71
2023/11/02 01:04:39;;;;;;;7.00;4.80;;;;;;;3.59;100.00;97066.54;110153;1243;69233;-71
2023/11/02 01:07:15;;;;;;;6.60;4.60;;;;;;;3.62;100.00;97061.23;110323;1242;59750;-70
2023/11/02 01:10:00;;;;;;;6.30;5.10;;;;;;;3.65;100.00;97059.36;110307;1240;59661;-70
2023/11/02 01:12:37;;;;;;;6.90;5.60;;;;;;;3.66;100.00;97056.00;110311;1241;69563;-70
2023/11/02 01:15:45;;;;;;;6.00;4.30;;;;;;;3.70;100.00;97054.63;110174;1240;68526;-70
2023/11/02 01:18:17;;;;;;;5.60;4.00;;;;;;;3.72;100.00;97056.60;110252;1244;69380;-71
2023/11/02 01:20:55;;;;;;;6.00;4.00;;;;;;;3.72;100.00;97058.62;110300;1240;59702;-71
2023/11/02 01:23:29;;;;;;;5.80;3.90;;;;;;;3.73;100.00;97057.53;110167;1240;60072;-70
2023/11/02 01:26:02;;;;;;;5.50;3.60;;;;;;;3.73;100.00;97053.77;110173;1243;70421;-71
2023/11/02 01:29:02;;;;;;;5.20;3.90;;;;;;;3.72;100.00;97052.11;110168;1240;69063;-70
2023/11/02 01:31:39;;;;;;;6.10;4.00;;;;;;;3.72;100.00;97045.38;110019;1244;68560;-71
2023/11/02 01:34:23;;;;;;;4.70;3.40;;;;;;;3.75;100.00;97046.63;110155;1243;59758;-70
2023/11/02 01:36:54;;;;;;;5.00;3.60;;;;;;;3.77;100.00;97039.23;110270;1240;59684;-71
2023/11/02 01:39:30;;;;;;;4.40;3.30;;;;;;;3.81;100.00;97035.77;110300;1243;70665;-71
2023/11/02 01:42:11;;;;;;;4.80;3.20;;;;;;;3.86;100.00;97031.88;110150;1244;69105;-71
2023/11/02 01:45:08;;;;;;;3.80;3.20;;;;;;;3.90;100.00;97035.11;110123;1240;69103;-70
2023/11/02 01:47:49;;;;;;;5.40;3.80;;;;;;;3.94;100.00;97035.27;110147;1244;59686;-71
2023/11/02 01:50:53;;;;;;;5.10;3.60;;;;;;;3.92;100.00;97036.42;110188;1242;59677;-71
2023/11/02 01:53:38;;;;;;;8.60;6.70;;;;;;;3.84;100.00;97037.66;110157;1250;69905;-71
2023/11/02 01:56:22;;;;;;;6.60;5.10;;;;;;;3.72;100.00;97036.42;110132;1246;69256;-70
2023/11/02 01:59:12;;;;;;;5.50;4.00;;;;;;;3.63;100.00;97028.94;110182;1243;69252;-70
2023/11/02 02:01:56;;;;;;;;;;;;;;;3.63;100.00;97023.96;110193;1242;60144;-70
2023/11/02 02:05:03;;;;;;;5.80;4.20;;;;;;;3.64;100.00;97019.23;110118;1241;59729;-70
2023/11/02 02:07:44;;;;;;;5.60;4.20;;;;;;;3.66;100.00;97012.05;110164;1243;69757;-70
2023/11/02 02:10:33;;;;;;;5.90;3.90;;;;;;;3.71;100.00;97014.77;110178;1240;69081;-70
2023/11/02 02:13:43;;;;;;;4.20;3.60;;;;;;;3.73;100.00;97015.14;110126;1243;69288;-70
2023/11/02 02:16:41;;;;;;;7.50;4.30;;;;;;;3.76;100.00;97019.98;110194;1243;59689;-70
2023/11/02 02:19:25;;;;;;;6.70;4.60;;;;;;;3.76;100.00;97026.02;110118;1243;60129;-70
2023/11/02 02:22:25;;;;;;;10.20;7.70;;;;;;;3.67;100.00;97034.93;110161;1244;71429;-70
2023/11/02 02:25:13;;;;;;;9.00;7.30;;;;;;;3.47;100.00;97039.75;110185;1240;68832;-71
2023/11/02 02:27:54;;;;;;;6.80;5.20;;;;;;;3.33;100.00;97040.48;110228;1244;69261;-70
2023/11/02 02:30:41;;;;;;;7.10;4.80;;;;;;;3.28;100.00;97039.64;110293;1242;59731;-71
2023/11/02 02:33:43;;;;;;;7.50;5.40;;;;;;;3.27;100.00;97029.38;110277;1244;59675;-71
2023/11/02 02:36:22;;;;;;;10.90;7.50;;;;;;;3.27;100.00;97033.14;110197;1245;70632;-70
2023/11/02 02:39:04;;;;;;;7.40;5.20;;;;;;;3.28;100.00;97032.41;110285;1242;68719;-71
2023/11/02 02:41:40;;;;;;;6.60;4.70;;;;;;;3.27;100.00;97025.21;110171;1242;69325;-71
2023/11/02 02:44:16;;;;;;;5.80;4.00;;;;;;;3.27;100.00;97021.77;110201;1243;59693;-70
2023/11/02 02:46:57;;;;;;;7.70;4.70;;;;;;;3.28;100.00;97021.56;110233;1242;59666;-71
2023/11/02 02:49:43;;;;;;;5.70;4.40;;;;;;;3.29;100.00;97016.17;110254;1245;71374;-70
2023/11/02 02:52:22;;;;;;;6.50;4.60;;;;;;;3.30;100.00;97019.05;110174;1243;68568;-70
2023/11/02 02:55:01;;;;;;;6.70;4.80;;;;;;;3.30;100.00;97015.60;110229;1242;68585;-70
2023/11/02 02:57:37;;;;;;;7.20;5.00;;;;;;;3.30;100.00;97010.77;110275;1242;59732;-71
2023/11/02 03:00:15;;;;;;;11.40;7.00;;;;;;;3.32;100.00;97014.84;110298;1243;60079;-71
2023/11/02 03:02:47;;;;;;;7.60;5.80;;;;;;;3.28;100.00;97014.33;110232;1242;70520;-70
2023/11/02 03:05:20;;;;;;;6.80;4.80;;;;;;;3.26;100.00;97008.39;110170;1245;69280;-71
2023/11/02 03:07:54;;;;;;;5.60;4.30;;;;;;;3.26;100.00;97006.52;110305;1251;69292;-71
2023/11/02 03:10:32;;;;;;;6.00;4.50;;;;;;;3.27;100.00;97002.15;110351;1241;59660;-71
2023/11/02 03:13:12;;;;;;;7.10;4.40;;;;;;;3.29;100.00;97004.64;110140;1243;59748;-71
2023/11/02 03:15:48;;;;;;;6.60;4.00;;;;;;;3.32;100.00;97003.10;110292;1240;71963;-71
2023/11/02 03:18:34;;;;;;;5.40;3.80;;;;;;;3.38;100.00;97005.24;110162;1240;69274;-71
2023/11/02 03:21:07;;;;;;;7.60;4.60;;;;;;;3.42;100.00;97003.81;110300;1242;69547;-71
2023/11/02 03:23:49;;;;;;;5.20;3.90;;;;;;;3.47;100.00;96999.23;110175;1242;59733;-71
2023/11/02 03:26:42;;;;;;;6.00;4.00;;;;;;;3.53;100.00;96999.11;110247;1242;59728;-71
2023/11/02 03:29:27;;;;;;;5.80;4.10;;;;;;;3.56;100.00;97000.34;110145;1243;70839;-71
2023/11/02 03:32:25;;;;;;;7.20;5.10;;;;;;;3.58;100.00;96993.52;110323;1244;68372;-71
2023/11/02 03:35:22;;;;;;;5.90;3.70;;;;;;;3.59;100.00;96983.80;110291;1243;69496;-71
2023/11/02 03:38:07;;;;;;;5.30;3.70;;;;;;;3.62;100.00;96981.80;110309;1242;59764;-71
2023/11/02 03:41:05;;;;;;;6.60;4.90;;;;;;;3.64;100.00;96972.38;110238;1244;60124;-71
2023/11/02 03:44:07;;;;;;;6.00;4.10;;;;;;;3.67;100.00;96967.20;110160;1242;71052;-71
2023/11/02 03:46:59;;;;;;;6.30;4.70;;;;;;;3.68;100.00;96968.52;110121;1243;69092;-71
2023/11/02 03:49:39;;;;;;;5.90;4.10;;;;;;;3.68;100.00;96958.52;110168;1241;68576;-70
2023/11/02 03:52:20;;;;;;;5.30;4.50;;;;;;;3.67;100.00;96952.77;110271;1243;59719;-71
2023/11/02 03:55:02;;;;;;;;;;;;;;;3.66;100.00;96947.98;110295;1246;59689;-71
2023/11/02 03:57:55;;;;;;;5.80;4.50;;;;;;;3.67;100.00;96947.08;110157;1242;71393;-71
2023/11/02 04:00:26;;;;;;;;;;;;;;;3.70;100.00;96947.91;110262;1243;69303;-71
2023/11/02 04:03:03;;;;;;;5.80;4.20;;;;;;;3.74;100.00;96949.44;110248;1243;69317;-71
2023/11/02 04:05:42;;;;;;;5.70;4.00;;;;;;;3.77;100.00;96943.24;110228;1240;59680;-71
2023/11/02 04:08:18;;;;;;;6.10;4.00;;;;;;;3.80;100.00;96938.45;110210;1242;59612;-71
2023/11/02 04:10:59;;;;;;;6.10;4.00;;;;;;;3.82;100.00;96934.02;110255;1241;71424;-71
2023/11/02 04:13:38;;;;;;;6.60;4.30;;;;;;;3.82;100.00;96928.67;110237;1244;69209;-71
2023/11/02 04:16:09;;;;;;;6.20;4.90;;;;;;;3.84;100.00;96918.73;110163;1243;68729;-71
2023/11/02 04:18:39;;;;;;;6.30;4.60;;;;;;;3.87;100.00;96915.14;110283;1242;59713;-71
2023/11/02 04:21:14;;;;;;;5.40;3.60;;;;;;;3.91;100.00;96915.27;110168;1243;59713;-71
2023/11/02 04:23:49;;;;;;;5.10;3.90;;;;;;;3.94;100.00;96910.77;110298;1243;71175;-71
2023/11/02 04:26:28;;;;;;;6.50;5.00;;;;;;;3.96;100.00;96903.08;110243;1242;69240;-71
2023/11/02 04:29:01;;;;;;;8.00;5.20;;;;;;;3.96;100.00;96894.65;110232;1243;68579;-71
2023/11/02 04:31:31;;;;;;;6.30;4.80;;;;;;;3.95;100.00;96892.44;110267;1243;59716;-71
2023/11/02 04:34:02;;;;;;;6.00;4.00;;;;;;;3.94;100.00;96891.31;110155;1242;59656;-71
2023/11/02 04:36:32;;;;;;;5.20;3.90;;;;;;;3.94;100.00;96895.09;110326;1242;70649;-71
2023/11/02 04:39:02;;;;;;;6.40;4.70;;;;;;;3.94;100.00;96898.53;110241;1245;69866;-71
2023/11/02 04:41:32;;;;;;;5.80;4.90;;;;;;;3.93;100.00;96896.16;110255;1242;69200;-71
2023/11/02 04:44:01;;;;;;;6.90;4.60;;;;;;;3.90;100.00;96897.40;110180;1241;59723;-71
2023/11/02 04:46:31;;;;;;;6.10;4.20;;;;;;;3.88;100.00;96900.10;110304;1243;59681;-69
2023/11/02 04:49:00;;;;;;;5.70;4.30;;;;;;;3.86;100.00;96899.16;110137;1244;71333;-70
2023/11/02 04:51:31;;;;;;;8.40;5.70;;;;;;;3.82;100.00;96903.48;110206;1245;68622;-71
2023/11/02 04:54:01;;;;;;;6.30;4.30;;;;;;;3.76;100.00;96907.09;110177;1242;68843;-70
2023/11/02 04:56:32;;;;;;;7.00;4.50;;;;;;;3.71;100.00;96907.89;110296;1245;59754;-71
2023/11/02 04:59:03;;;;;;;4.80;3.80;;;;;;;3.69;100.00;96910.59;110195;1242;59660;-71
2023/11/02 05:01:32;;;;;;;6.40;4.10;;;;;;;3.68;100.00;96910.31;110187;1242;71465;-70
2023/11/02 05:04:02;;;;;;;5.80;4.20;;;;;;;3.66;100.00;96907.29;110171;1250;68865;-70
2023/11/02 05:06:31;;;;;;;5.10;3.60;;;;;;;3.66;100.00;96911.64;110178;1250;69305;-70
2023/11/02 05:09:02;;;;;;;4.20;3.30;;;;;;;3.65;100.00;96914.75;110167;1243;59678;-70
2023/11/02 05:11:32;;;;;;;5.90;3.80;;;;;;;3.66;100.00;96922.14;110189;1242;59678;-70
2023/11/02 05:14:02;;;;;;;5.20;4.40;;;;;;;3.67;100.00;96925.00;110179;1242;71374;-70
2023/11/02 05:16:31;;;;;;;4.80;3.20;;;;;;;3.68;100.00;96923.91;110187;1242;69353;-70
2023/11/02 05:19:00;;;;;;;4.40;3.60;;;;;;;3.71;100.00;96925.83;110124;1247;69100;-70
2023/11/02 05:21:29;;;;;;;4.50;3.40;;;;;;;3.74;100.00;96925.67;110134;1242;59663;-70
2023/11/02 05:23:59;;;;;;;8.40;6.30;;;;;;;3.76;100.00;96933.97;110153;1246;59666;-70
2023/11/02 05:26:31;;;;;;;7.80;5.50;;;;;;;3.74;100.00;96932.71;110132;1243;71445;-69
2023/11/02 05:29:01;;;;;;;7.20;5.30;;;;;;;3.71;100.00;96922.23;110115;1245;69158;-70
2023/11/02 05:31:30;;;;;;;8.40;6.40;;;;;;;3.67;100.00;96908.09;110138;1243;69324;-70
2023/11/02 05:34:00;;;;;;;7.30;5.10;;;;;;;3.67;100.00;96897.27;110158;1242;59740;-70
2023/11/02 05:36:30;;;;;;;8.70;5.50;;;;;;;3.69;100.00;96892.98;110176;1243;59664;-70
2023/11/02 05:39:00;;;;;;;6.60;5.10;;;;;;;3.75;100.00;96891.63;110199;1242;71868;-70
2023/11/02 05:41:30;;;;;;;7.50;5.70;;;;;;;3.88;100.00;96898.88;110145;1242;69786;-71
2023/11/02 05:44:00;;;;;;;7.30;4.90;;;;;;;3.95;100.00;96893.86;110149;1241;69273;-70
2023/11/02 05:46:30;;;;;;;9.70;6.70;;;;;;;3.98;100.00;96890.89;110159;1249;59744;-69
2023/11/02 05:49:02;;;;;;;12.60;8.80;;;;;;;4.02;100.00;96883.27;110303;1241;59638;-70
2023/11/02 05:51:31;;;;;;;11.70;8.80;;;;;;;4.06;100.00;96875.27;110145;1242;70450;-70
2023/11/02 05:54:02;;;;;;;9.80;7.90;;;;;;;4.07;100.00;96861.60;110129;1242;69370;-70
2023/11/02 05:56:31;;;;;;;9.50;8.00;;;;;;;4.12;100.00;96857.91;110218;1245;68289;-71
2023/11/02 05:59:01;;;;;;;9.20;7.40;;;;;;;4.22;100.00;96854.05;110174;1241;60106;-72
2023/11/02 06:01:31;;;;;;;11.20;8.50;;;;;;;4.31;100.00;96849.95;110189;1243;59686;-71
2023/11/02 06:04:02;;;;;;;10.10;7.90;;;;;;;4.35;100.00;96855.92;110246;1242;70819;-71
2023/11/02 06:06:35;;;;;;;10.30;8.30;;;;;;;4.37;100.00;96863.73;110226;1247;68497;-71
2023/11/02 06:09:05;;;;;;;11.30;8.90;;;;;;;4.40;100.00;96873.93;110124;1249;69785;-70
2023/11/02 06:11:35;;;;;;;9.50;7.00;;;;;;;4.43;100.00;96876.52;110259;1242;60057;-70
2023/11/02 06:14:04;;;;;;;9.30;7.20;;;;;;;4.51;100.00;96874.69;109850;1246;59675;-70
2023/11/02 06:16:33;;;;;;;12.50;8.90;;;;;;;4.57;100.00;96875.01;110109;1245;71647;-70
2023/11/02 06:19:04;;;;;;;13.90;11.10;;;;;;;4.61;100.00;96873.60;110215;1249;69856;-70
2023/11/02 06:21:33;;;;;;;14.50;11.20;;;;;;;4.65;100.00;96874.95;110197;1242;69309;-70
2023/11/02 06:24:04;;;;;;;13.50;9.80;;;;;;;4.67;100.00;96871.35;110186;1242;59699;-70
2023/11/02 06:26:33;;;;;;;11.90;9.70;;;;;;;4.69;100.00;96871.91;110189;1242;59679;-70
2023/11/02 06:29:02;;;;;;;14.50;10.90;;;;;;;4.73;100.00;96884.27;110152;1242;71967;-70
2023/11/02 06:31:31;;;;;;;11.30;8.80;;;;;;;4.73;100.00;96884.13;110188;1243;69243;-70
2023/11/02 06:34:01;;;;;;;9.60;8.30;;;;;;;4.72;100.00;96879.33;110264;1242;68192;-70
2023/11/02 06:36:30;;;;;;;6.90;6.20;;;;;;;4.84;100.00;96873.62;110119;1241;59699;-70
2023/11/02 06:39:02;;;;;;;8.80;7.20;;;;;;;4.98;100.00;96870.41;110197;1243;59666;-70
2023/11/02 06:41:33;;;;;;;6.60;5.30;;;;;;;5.11;100.00;96870.34;110124;1242;71386;-70
2023/11/02 06:44:03;;;;;;;6.20;4.60;;;;;;;5.25;100.00;96873.10;110176;1240;69175;-69
2023/11/02 06:46:32;;;;;;;5.20;4.10;;;;;;;5.39;100.00;96875.54;110204;1241;69375;-71
2023/11/02 06:49:01;;;;;;;5.60;4.60;;;;;;;5.53;100.00;96873.49;110267;1242;59725;-70
2023/11/02 06:51:33;;;;;;;9.00;7.10;;;;;;;5.66;100.00;96875.83;110159;1242;59689;-69
2023/11/02 06:54:04;;;;;;;7.90;6.50;;;;;;;5.77;100.00;96874.45;110169;1242;71877;-70
2023/11/02 06:56:37;;;;;;;8.00;6.80;;;;;;;5.84;100.00;96868.77;110214;1242;69575;-69
2023/11/02 06:59:07;;;;;;;7.20;6.20;;;;;;;5.93;100.00;96863.10;110158;1243;69507;-69
2023/11/02 07:01:36;;;;;;;6.60;5.70;;;;;;;6.00;100.00;96862.47;110222;1242;59803;-71
2023/11/02 07:04:06;;;;;;;9.90;6.80;;;;;;;6.11;100.00;96863.30;110199;1241;59732;-71
2023/11/02 07:06:35;;;;;;;9.80;7.70;;;;;;;6.21;100.00;96859.42;110209;1242;71531;-71
2023/11/02 07:09:07;;;;;;;8.20;6.50;;;;;;;6.30;100.00;96859.85;110197;1242;69282;-71
2023/11/02 07:11:40;;;;;;;10.50;8.10;;;;;;;6.41;100.00;96860.90;110227;1242;68808;-70
2023/11/02 07:14:10;;;;;;;8.30;6.10;;;;;;;6.49;100.00;96856.21;110186;1242;59811;-71
2023/11/02 07:16:39;;;;;;;7.20;5.30;;;;;;;6.61;100.00;96858.90;110272;1242;59741;-71
2023/11/02 07:19:10;;;;;;;6.80;4.80;;;;;;;6.69;100.00;96856.99;110263;1241;70638;-71
2023/11/02 07:21:39;;;;;;;6.10;5.00;;;;;;;6.81;100.00;96845.14;110208;1242;68535;-70
2023/11/02 07:24:09;;;;;;;7.90;7.10;;;;;;;6.90;100.00;96846.71;110154;1241;69285;-69
2023/11/02 07:26:38;;;;;;;12.00;9.20;;;;;;;6.99;100.00;96842.84;110208;1242;59680;-70
2023/11/02 07:29:08;;;;;;;8.60;7.60;;;;;;;7.10;100.00;96845.20;110169;1242;59724;-69
2023/11/02 07:31:40;;;;;;;9.00;7.70;;;;;;;7.24;100.00;96847.45;110152;1243;71388;-70
2023/11/02 07:34:09;;;;;;;9.90;8.30;;;;;;;7.36;100.00;96843.78;110189;1242;69212;-69
2023/11/02 07:36:38;;;;;;;9.00;6.70;;;;;;;7.47;100.00;96836.98;110173;1242;68248;-69
2023/11/02 07:39:08;;;;;;;8.10;6.90;;;;;;;7.62;100.00;96836.60;110158;1242;59696;-69
2023/11/02 07:41:40;;;;;;;8.30;6.40;;;;;;;7.80;100.00;96832.73;110163;1240;59692;-69
2023/11/02 07:44:10;;;;;;;7.30;6.10;;;;;;;8.01;100.00;96836.50;110180;1241;71427;-70
2023/11/02 07:46:39;;;;;;;8.60;7.70;;;;;;;8.16;100.00;96836.95;110177;1243;69766;-70
2023/11/02 07:49:09;;;;;;;9.70;6.90;;;;;;;8.35;100.00;96837.67;110090;1245;69102;-70
2023/11/02 07:51:38;;;;;;;7.40;6.20;;;;;;;8.51;100.00;96836.13;110157;1241;59696;-70
2023/11/02 07:54:09;;;;;;;7.40;5.90;;;;;;;8.62;100.00;96830.65;110172;1241;59679;-70
2023/11/02 07:56:38;;;;;;;6.70;5.30;;;;;;;8.73;100.00;96826.42;110185;1243;71461;-69
2023/11/02 07:59:11;;;;;;;6.50;5.40;;;;;;;8.85;100.00;96824.25;110154;1242;69565;-70
2023/11/02 08:01:40;;;;;;;8.20;5.70;;;;;;;8.97;100.00;96826.66;110119;1240;69959;-69
2023/11/02 08:04:11;;;;;;;7.10;6.10;;;;;;;9.04;100.00;96830.66;110145;1245;59736;-70
2023/11/02 08:06:40;;;;;;;7.50;6.60;;;;;;;9.29;100.00;96834.67;110170;1242;59684;-69
2023/11/02 08:09:09;;;;;;;9.80;8.40;;;;;;;9.45;100.00;96835.65;110187;1242;72044;-70
2023/11/02 08:11:39;;;;;;;10.30;9.10;;;;;;;9.50;100.00;96838.64;110195;1242;68512;-70
2023/11/02 08:14:08;;;;;;;;;;;;;;;9.55;100.00;96831.60;110185;1243;69275;-69
2023/11/02 08:16:37;;;;;;;12.20;10.40;;;;;;;9.60;100.00;96827.67;110202;1242;59819;-71
2023/11/02 08:19:07;;;;;;;12.30;8.70;;;;;;;9.67;100.00;96832.05;110151;1242;59681;-70
2023/11/02 08:21:38;;;;;;;11.30;9.20;;;;;;;9.76;100.00;96833.11;110166;1241;71485;-70
2023/11/02 08:24:09;;;;;;;9.10;8.20;;;;;;;9.77;100.00;96827.83;110229;1245;69242;-71
2023/11/02 08:26:38;;;;;;;8.70;7.80;;;;;;;9.89;100.00;96834.18;110195;1242;69380;-72
2023/11/02 08:29:10;;;;;;;9.20;7.90;;;;;;;10.08;100.00;96832.95;110198;1243;59751;-72
2023/11/02 08:31:39;;;;;;;12.50;9.30;;;;;;;10.26;100.00;96830.48;110341;1242;59646;-71
2023/11/02 08:34:11;;;;;;;10.00;8.60;;;;;;;10.40;100.00;96830.05;110214;1240;71550;-69
2023/11/02 08:36:40;;;;;;;8.60;7.60;;;;;;;10.56;100.00;96834.31;110225;1243;68556;-70
2023/11/02 08:39:10;;;;;;;10.60;8.70;;;;;;;10.63;100.00;96831.13;110166;1243;69423;-68
2023/11/02 08:41:40;;;;;;;9.80;8.80;;;;;;;10.74;100.00;96828.34;110176;1242;59799;-69
2023/11/02 08:44:09;;;;;;;7.80;7.00;;;;;;;10.85;97.09;96824.42;110187;1242;59745;-70
2023/11/02 08:46:39;;;;;;;6.60;5.90;;;;;;;11.02;100.00;96818.84;110226;1242;71382;-70
2023/11/02 08:49:08;;;;;;;6.30;5.10;;;;;;;11.04;94.57;96816.27;110186;1242;69435;-70
2023/11/02 08:51:38;;;;;;;5.40;3.70;;;;;;;11.12;92.82;96810.86;110237;1242;69317;-70
2023/11/02 08:54:07;;;;;;;4.60;3.50;;;;;;;11.18;92.79;96805.81;110242;1242;59707;-70
2023/11/02 08:56:36;;;;;;;4.50;4.10;;;;;;;11.22;92.37;96804.41;110227;1242;59733;-70
2023/11/02 08:59:07;;;;;;;5.30;4.10;;;;;;;11.36;94.48;96793.68;110292;1240;71965;-70
2023/11/02 09:01:36;;;;;;;4.10;3.70;;;;;;;11.23;92.73;96795.27;110336;1242;68596;-70
2023/11/02 09:04:05;;;;;;;3.60;3.20;;;;;;;11.32;91.17;96795.89;110257;1242;68515;-70
2023/11/02 09:06:37;;;;;;;5.00;3.70;;;;;;;11.44;88.71;96800.31;110312;1241;59724;-71
2023/11/02 09:09:07;;;;;;;3.80;3.10;;;;;;;11.63;89.56;96802.52;110388;1242;59669;-69
2023/11/02 09:11:36;;;;;;;3.20;2.60;;;;;;;11.71;84.43;96801.06;110362;1241;70660;-70
2023/11/02 09:14:05;;;;;;;5.10;3.30;;;;;;;11.90;83.64;96800.30;110456;1242;69802;-70
2023/11/02 09:16:34;;;;;;;4.60;3.10;;;;;;;12.06;82.73;96794.93;110705;1244;68691;-71
2023/11/02 09:19:04;;;;;;;4.70;3.50;;;;;;;12.24;82.07;96792.84;110477;1241;454855;-70
2023/11/02 09:21:38;;;;;;;4.90;3.70;;;;;;;12.14;80.96;96788.41;110438;1240;59731;-71
2023/11/02 09:24:08;;;;;;;4.40;3.30;;;;;;;12.19;79.62;96785.52;110249;1242;71638;-71
2023/11/02 09:26:41;;;;;;;4.10;2.70;;;;;;;12.47;79.11;96778.52;110283;1241;69984;-70
2023/11/02 09:29:11;;;;;;;3.20;2.90;;;;;;;12.84;79.25;96777.34;110264;1241;69189;-70
2023/11/02 09:31:41;;;;;;;5.50;2.80;;;;;;;13.28;78.71;96770.86;110459;1240;59690;-71
2023/11/02 09:34:27;;;;;;;3.30;2.50;;;;;;;13.86;77.00;96765.34;110336;1241;59674;-70
2023/11/02 09:36:57;;;;;;;2.40;1.90;;;;;;;14.29;74.01;96765.94;110263;1241;71379;-71
2023/11/02 09:39:26;;;;;;;2.40;1.80;;;;;;;14.96;75.04;96758.52;110236;1241;69537;-70
2023/11/02 09:41:55;;;;;;;2.60;2.00;;;;;;;15.83;71.94;96754.05;110232;1241;69379;-71
2023/11/02 09:44:25;;;;;;;2.60;1.80;;;;;;;16.51;64.71;96742.86;110297;1240;59668;-70
2023/11/02 09:46:55;;;;;;;3.40;2.40;;;;;;;17.29;57.90;96735.92;110319;1241;59666;-70
2023/11/02 09:49:25;;;;;;;3.30;2.50;;;;;;;18.08;62.30;96735.28;110227;1242;71864;-70
2023/11/02 09:51:56;;;;;;;3.50;2.40;;;;;;;18.59;55.23;96729.64;110193;1243;69203;-71
2023/11/02 09:54:28;;;;;;;3.10;2.00;;;;;;;18.89;50.61;96723.09;110195;1241;68518;-70
2023/11/02 09:57:10;;;;;;;2.80;2.30;;;;;;;19.47;49.95;96717.19;110164;1243;59703;-70
2023/11/02 09:59:44;;;;;;;3.00;2.30;;;;;;;20.16;53.05;96712.55;110292;1242;59702;-70
2023/11/02 10:02:16;;;;;;;3.20;2.30;;;;;;;19.93;48.18;96707.73;110193;1240;71391;-70
2023/11/02 10:04:48;;;;;;;2.80;2.10;;;;;;;19.87;47.73;96699.62;110208;1243;69826;-69
2023/11/02 10:07:18;;;;;;;3.40;2.60;;;;;;;19.67;47.01;96696.58;110155;1242;69657;-70
2023/11/02 10:09:50;;;;;;;3.40;2.60;;;;;;;19.70;48.04;96700.64;110116;1240;59665;-70
2023/11/02 10:12:21;;;;;;;3.00;2.50;;;;;;;19.69;49.92;96694.14;110193;1242;59674;-71
2023/11/02 10:14:51;;;;;;;3.00;2.20;;;;;;;20.40;52.52;96697.72;110185;1241;71182;-70
2023/11/02 10:17:21;;;;;;;3.00;1.90;;;;;;;20.88;46.17;96687.59;110321;1242;68229;-70
2023/11/02 10:19:51;;;;;;;2.70;1.60;;;;;;;21.63;45.37;96679.27;110173;1241;69880;-70
2023/11/02 10:22:22;;;;;;;1.90;1.40;;;;;;;22.77;47.56;96673.12;110160;1242;59682;-70
2023/11/02 10:24:51;;;;;;;1.80;1.30;;;;;;;23.29;41.49;96664.60;110218;1243;59733;-70
2023/11/02 10:27:21;;;;;;;1.50;1.20;;;;;;;22.70;39.94;96660.73;110175;1242;71397;-69
2023/11/02 10:29:51;;;;;;;1.60;1.10;;;;;;;22.83;43.07;96661.16;110130;1242;68480;-70
2023/11/02 10:32:22;;;;;;;1.50;1.20;;;;;;;22.06;40.64;96657.44;110148;1241;69293;-70
2023/11/02 10:34:53;;;;;;;1.70;1.30;;;;;;;21.72;42.36;96653.30;110151;1241;59736;-69
2023/11/02 10:37:31;;;;;;;1.60;1.20;;;;;;;21.72;43.30;96653.08;110160;1243;59751;-71
2023/11/02 10:40:01;;;;;;;1.60;1.10;;;;;;;21.56;42.20;96650.26;110185;1242;71836;-70
2023/11/02 10:42:30;;;;;;;1.60;1.00;;;;;;;22.19;41.58;96649.58;110322;1242;69721;-69
2023/11/02 10:45:03;;;;;;;1.80;1.40;;;;;;;22.94;40.75;96643.39;110124;1242;69602;-69
2023/11/02 10:47:38;;;;;;;1.90;1.30;;;;;;;23.18;38.03;96629.88;110197;1243;59723;-69
2023/11/02 10:50:09;;;;;;;2.80;1.00;;;;;;;24.08;38.72;96623.34;110200;1242;59807;-68
2023/11/02 10:52:46;;;;;;;3.90;1.30;;;;;;;24.39;37.73;96616.59;110216;1241;70646;-70
2023/11/02 10:55:25;;;;;;;1.40;0.90;;;;;;;24.69;36.61;96615.24;110208;1242;69219;-68
2023/11/02 10:57:56;;;;;;;1.50;0.90;;;;;;;24.94;36.44;96607.27;110255;1242;68518;-69
2023/11/02 11:00:26;;;;;;;1.30;0.70;;;;;;;25.44;35.69;96611.70;110202;1242;59664;-69
2023/11/02 11:02:57;;;;;;;1.40;1.00;;;;;;;25.94;35.35;96609.95;110284;1241;59601;-70
2023/11/02 11:05:27;;;;;;;1.40;0.90;;;;;;;26.10;33.43;96608.20;110178;1242;71969;-69
2023/11/02 11:08:02;;;;;;;1.40;0.90;;;;;;;26.60;33.96;96603.67;110169;1242;69538;-68
2023/11/02 11:10:32;;;;;;;1.80;0.90;;;;;;;26.89;33.25;96597.10;110172;1242;69308;-68
2023/11/02 11:13:09;;;;;;;0.80;0.80;;;;;;;27.49;33.75;96591.50;110167;1242;59729;-68
2023/11/02 11:15:39;;;;;;;1.30;0.90;;;;;;;27.65;31.95;96591.67;110320;1240;59700;-69
2023/11/02 11:18:11;;;;;;;1.40;1.00;;;;;;;27.73;30.16;96591.98;110296;1241;71379;-68
2023/11/02 11:20:45;;;;;;;2.20;1.00;;;;;;;27.98;31.04;96590.71;110292;1240;68310;-70
2023/11/02 11:23:14;;;;;;;1.80;1.10;;;;;;;27.17;29.97;96582.96;110285;1243;69271;-68
2023/11/02 11:26:01;;;;;;;1.40;0.90;;;;;;;27.22;30.61;96583.02;110134;1242;59737;-69
2023/11/02 11:28:35;;;;;;;1.80;1.10;;;;;;;26.55;31.38;96578.71;110199;1242;59689;-70
2023/11/02 11:31:09;;;;;;;1.20;0.90;;;;;;;25.68;32.22;96580.02;110172;1242;70997;-68
2023/11/02 11:33:49;;;;;;;1.90;1.10;;;;;;;25.01;32.88;96580.14;110196;1242;69249;-70
2023/11/02 11:36:22;;;;;;;1.00;0.90;;;;;;;24.48;33.13;96573.45;110143;1242;69818;-69
2023/11/02 11:38:53;;;;;;;1.30;0.90;;;;;;;24.19;33.40;96570.27;110189;1240;59707;-67
2023/11/02 11:41:45;;;;;;;1.40;0.90;;;;;;;24.26;33.37;96564.73;110185;1243;59699;-68
2023/11/02 11:44:22;;;;;;;1.30;0.90;;;;;;;23.77;33.57;96564.39;110144;1242;71415;-69
2023/11/02 11:46:56;;;;;;;1.60;1.10;;;;;;;23.46;34.61;96563.78;110212;1245;69720;-67
2023/11/02 11:49:39;;;;;;;1.70;1.20;;;;;;;22.97;35.53;96562.46;110170;1243;68911;-67
2023/11/02 11:52:27;;;;;;;1.70;1.20;;;;;;;22.49;35.79;96561.96;110154;1243;59751;-68
2023/11/02 11:54:58;;;;;;;2.50;1.20;;;;;;;21.75;36.33;96559.80;110134;1242;59710;-68
2023/11/02 11:57:54;;;;;;;1.30;1.00;;;;;;;21.35;37.17;96558.30;110168;1244;71252;-67
2023/11/02 12:00:25;;;;;;;1.30;0.90;;;;;;;21.05;37.65;96553.71;110181;1242;69225;-69